createdAt,value
2023-05-11T00:01:13.927Z,15.97
2023-05-11T00:03:41.408Z,17.93
2023-05-11T00:06:09.091Z,16.30
2023-05-11T00:08:47.020Z,11.67
2023-05-11T00:11:14.731Z,11.77
2023-05-11T00:13:42.361Z,11.57
2023-05-11T00:16:11.333Z,12.60
2023-05-11T00:18:38.906Z,14.37
2023-05-11T00:21:08.694Z,12.17
2023-05-11T00:23:36.380Z,14.20
2023-05-11T00:26:04.746Z,12.13
2023-05-11T00:28:32.267Z,8.80
2023-05-11T00:31:02.004Z,16.73
2023-05-11T00:33:34.298Z,15.27
2023-05-11T00:36:01.944Z,12.00
2023-05-11T00:38:29.578Z,13.30
2023-05-11T00:40:57.258Z,13.27
2023-05-11T00:43:24.899Z,10.53
2023-05-11T00:45:58.553Z,7.50
2023-05-11T00:48:26.329Z,10.57
2023-05-11T00:50:55.896Z,10.27
2023-05-11T00:53:23.432Z,9.70
2023-05-11T00:55:51.308Z,9.10
2023-05-11T00:58:22.025Z,10.93
2023-05-11T01:00:49.972Z,8.50
2023-05-11T01:03:18.251Z,11.70
2023-05-11T01:05:58.869Z,7.17
2023-05-11T01:08:37.815Z,8.27
2023-05-11T01:11:16.616Z,6.97
2023-05-11T01:13:49.445Z,8.93
2023-05-11T01:16:24.670Z,5.77
2023-05-11T01:19:01.791Z,8.67
2023-05-11T01:21:34.702Z,6.27
2023-05-11T01:24:24.757Z,7.53
2023-05-11T01:27:15.782Z,6.63
2023-05-11T01:30:06.308Z,6.37
2023-05-11T01:32:41.647Z,6.87
2023-05-11T01:35:16.312Z,5.53
2023-05-11T01:37:49.165Z,5.47
2023-05-11T01:40:19.792Z,4.67
2023-05-11T01:42:51.675Z,4.40
2023-05-11T01:45:20.054Z,4.33
2023-05-11T01:47:52.014Z,3.90
2023-05-11T01:50:21.817Z,3.60
2023-05-11T01:52:51.350Z,4.00
2023-05-11T01:55:22.182Z,3.97
2023-05-11T01:57:53.724Z,4.27
2023-05-11T02:00:24.486Z,3.70
2023-05-11T02:02:55.943Z,3.40
2023-05-11T02:05:25.116Z,3.87
2023-05-11T02:07:55.184Z,4.87
2023-05-11T02:10:26.221Z,4.37
2023-05-11T02:12:59.329Z,4.33
2023-05-11T02:15:29.149Z,4.47
2023-05-11T02:17:59.878Z,5.20
2023-05-11T02:20:28.300Z,4.07
2023-05-11T02:22:57.267Z,4.63
2023-05-11T02:25:30.132Z,4.80
2023-05-11T02:27:57.800Z,5.13
2023-05-11T02:30:29.562Z,5.80
2023-05-11T02:33:10.014Z,3.63
2023-05-11T02:35:40.371Z,4.53
2023-05-11T02:38:10.776Z,6.37
2023-05-11T02:40:43.819Z,6.03
2023-05-11T02:43:14.121Z,4.77
2023-05-11T02:45:51.985Z,4.17
2023-05-11T02:48:26.154Z,7.03
2023-05-11T02:50:56.421Z,6.30
2023-05-11T02:53:31.085Z,4.70
2023-05-11T02:56:00.168Z,4.43
2023-05-11T02:58:28.173Z,5.77
2023-05-11T03:01:08.128Z,5.90
2023-05-11T03:03:37.109Z,5.77
2023-05-11T03:06:05.354Z,6.27
2023-05-11T03:08:33.146Z,4.57
2023-05-11T03:11:05.679Z,4.70
2023-05-11T03:13:35.627Z,5.37
2023-05-11T03:16:06.817Z,4.07
2023-05-11T03:18:37.420Z,5.37
2023-05-11T03:21:07.100Z,7.30
2023-05-11T03:23:37.054Z,7.30
2023-05-11T03:26:08.182Z,4.83
2023-05-11T03:28:42.289Z,7.00
2023-05-11T03:31:09.931Z,4.30
2023-05-11T03:33:39.079Z,8.53
2023-05-11T03:36:11.618Z,7.33
2023-05-11T03:38:40.535Z,7.60
2023-05-11T03:41:18.640Z,7.00
2023-05-11T03:43:53.111Z,4.73
2023-05-11T03:46:23.701Z,6.43
2023-05-11T03:48:54.344Z,5.80
2023-05-11T03:51:26.056Z,6.33
2023-05-11T03:53:54.112Z,6.07
2023-05-11T03:56:23.106Z,6.37
2023-05-11T03:58:53.663Z,6.80
2023-05-11T04:01:22.743Z,6.70
2023-05-11T04:03:50.842Z,5.90
2023-05-11T04:06:20.886Z,6.10
2023-05-11T04:08:55.057Z,6.10
2023-05-11T04:11:22.919Z,7.70
2023-05-11T04:13:50.887Z,7.83
2023-05-11T04:16:18.676Z,9.10
2023-05-11T04:18:46.736Z,6.53
2023-05-11T04:21:16.639Z,8.37
2023-05-11T04:23:45.895Z,11.97
2023-05-11T04:26:13.535Z,6.80
2023-05-11T04:28:41.067Z,6.90
2023-05-11T04:31:08.543Z,7.03
2023-05-11T04:33:37.459Z,10.57
2023-05-11T04:36:06.763Z,7.70
2023-05-11T04:38:34.497Z,7.10
2023-05-11T04:41:06.297Z,8.67
2023-05-11T04:43:34.533Z,8.17
2023-05-11T04:46:05.253Z,8.73
2023-05-11T04:48:33.025Z,8.50
2023-05-11T04:51:05.028Z,7.97
2023-05-11T04:53:33.714Z,10.50
2023-05-11T04:56:01.344Z,12.07
2023-05-11T04:58:30.450Z,8.77
2023-05-11T05:00:58.115Z,7.80
2023-05-11T05:03:25.710Z,10.70
2023-05-11T05:05:54.295Z,8.73
2023-05-11T05:08:21.945Z,10.43
2023-05-11T05:10:49.764Z,11.60
2023-05-11T05:13:17.493Z,9.83
2023-05-11T05:15:46.478Z,13.47
2023-05-11T05:18:15.161Z,8.03
2023-05-11T05:20:45.998Z,11.27
2023-05-11T05:23:13.679Z,10.57
2023-05-11T05:25:41.239Z,12.93
2023-05-11T05:28:08.883Z,13.23
2023-05-11T05:30:37.595Z,10.60
2023-05-11T05:33:07.438Z,12.53
2023-05-11T05:35:36.578Z,9.17
2023-05-11T05:38:05.479Z,12.97
2023-05-11T05:40:37.324Z,8.50
2023-05-11T05:43:06.709Z,13.67
2023-05-11T05:45:34.618Z,11.53
2023-05-11T05:48:05.970Z,12.27
2023-05-11T05:50:36.132Z,12.27
2023-05-11T05:53:04.370Z,12.20
2023-05-11T05:55:33.758Z,15.07
2023-05-11T05:58:04.632Z,12.17
2023-05-11T06:00:32.532Z,13.77
2023-05-11T06:03:07.180Z,14.10
2023-05-11T06:05:36.214Z,13.03
2023-05-11T06:08:10.460Z,11.03
2023-05-11T06:10:40.135Z,10.53
2023-05-11T06:13:09.972Z,11.10
2023-05-11T06:15:43.216Z,14.47
2023-05-11T06:18:19.824Z,15.17
2023-05-11T06:20:52.016Z,13.00
2023-05-11T06:23:23.208Z,10.50
2023-05-11T06:25:50.969Z,15.13
2023-05-11T06:28:18.557Z,12.97
2023-05-11T06:30:46.325Z,12.20
2023-05-11T06:33:19.694Z,11.10
2023-05-11T06:35:47.392Z,13.53
2023-05-11T06:38:17.256Z,12.67
2023-05-11T06:40:45.244Z,12.77
2023-05-11T06:43:12.777Z,13.80
2023-05-11T06:45:46.935Z,11.53
2023-05-11T06:48:15.576Z,12.80
2023-05-11T06:50:43.164Z,11.13
2023-05-11T06:53:13.411Z,11.20
2023-05-11T06:55:42.239Z,12.70
2023-05-11T06:58:10.608Z,12.77
2023-05-11T07:00:38.236Z,11.30
2023-05-11T07:03:06.420Z,9.03
2023-05-11T07:05:33.968Z,10.07
2023-05-11T07:08:01.769Z,10.63
2023-05-11T07:10:29.387Z,8.83
2023-05-11T07:12:58.227Z,10.63
2023-05-11T07:15:26.155Z,11.60
2023-05-11T07:18:01.382Z,10.83
2023-05-11T07:20:29.193Z,9.90
2023-05-11T07:23:00.200Z,8.37
2023-05-11T07:25:28.025Z,8.60
2023-05-11T07:27:55.728Z,10.57
2023-05-11T07:30:26.189Z,8.50
2023-05-11T07:32:54.056Z,9.93
2023-05-11T07:35:23.924Z,7.43
2023-05-11T07:37:51.821Z,8.20
2023-05-11T07:40:19.732Z,8.30
2023-05-11T07:42:48.557Z,10.43
2023-05-11T07:45:16.274Z,6.73
2023-05-11T07:47:45.347Z,8.37
2023-05-11T07:50:12.896Z,7.67
2023-05-11T07:52:40.703Z,7.37
2023-05-11T07:55:15.130Z,7.60
2023-05-11T07:57:42.992Z,11.00
2023-05-11T08:00:11.784Z,7.00
2023-05-11T08:02:42.915Z,8.17
2023-05-11T08:05:12.425Z,6.17
2023-05-11T08:08:05.223Z,6.50
2023-05-11T08:10:33.031Z,5.37
2023-05-11T08:13:00.782Z,5.30
2023-05-11T08:15:28.318Z,4.63
2023-05-11T08:17:56.667Z,8.00
2023-05-11T08:20:32.858Z,6.53
2023-05-11T08:23:00.496Z,6.77
2023-05-11T08:25:28.144Z,7.20
2023-05-11T08:27:55.565Z,5.23
2023-05-11T08:30:23.635Z,5.57
2023-05-11T08:32:58.517Z,7.20
2023-05-11T08:35:28.425Z,5.80
2023-05-11T08:37:55.921Z,4.47
2023-05-11T08:40:26.073Z,7.37
2023-05-11T08:42:57.223Z,5.50
2023-05-11T08:45:27.599Z,6.43
2023-05-11T08:47:55.843Z,5.30
2023-05-11T08:50:23.648Z,4.77
2023-05-11T08:52:52.486Z,4.43
2023-05-11T08:55:20.486Z,5.10
2023-05-11T08:57:49.407Z,5.10
2023-05-11T09:00:17.701Z,6.37
2023-05-11T09:02:45.602Z,6.27
2023-05-11T09:05:16.438Z,4.63
2023-05-11T09:07:47.879Z,5.60
2023-05-11T09:10:17.010Z,6.20
2023-05-11T09:12:44.550Z,5.80
2023-05-11T09:15:14.184Z,5.20
2023-05-11T09:17:45.142Z,5.77
2023-05-11T09:20:13.332Z,4.07
2023-05-11T09:22:45.487Z,5.67
2023-05-11T09:25:14.641Z,6.87
2023-05-11T09:27:44.336Z,6.53
2023-05-11T09:30:21.700Z,4.97
2023-05-11T09:32:53.315Z,7.97
2023-05-11T09:35:25.559Z,4.90
2023-05-11T09:38:05.608Z,6.67
2023-05-11T09:40:34.933Z,6.43
2023-05-11T09:43:16.577Z,7.57
2023-05-11T09:45:45.814Z,5.50
2023-05-11T09:48:26.890Z,6.77
2023-05-11T09:51:02.469Z,6.67
2023-05-11T09:53:39.081Z,9.30
2023-05-11T09:56:07.478Z,8.20
2023-05-11T09:58:50.188Z,7.90
2023-05-11T10:01:19.100Z,8.90
2023-05-11T10:03:56.377Z,9.37
2023-05-11T10:06:44.548Z,10.80
2023-05-11T10:09:12.829Z,9.90
2023-05-11T10:11:44.946Z,10.13
2023-05-11T10:14:16.145Z,9.40
2023-05-11T10:16:48.807Z,10.33
2023-05-11T10:19:17.465Z,11.70
2023-05-11T10:21:45.710Z,6.33
2023-05-11T10:24:13.834Z,8.77
2023-05-11T10:26:42.415Z,8.43
2023-05-11T10:29:12.024Z,8.30
2023-05-11T10:31:41.768Z,9.93
2023-05-11T10:34:12.844Z,7.80
2023-05-11T10:36:40.374Z,10.07
2023-05-11T10:39:07.839Z,15.30
2023-05-11T10:41:49.283Z,8.07
2023-05-11T10:44:37.057Z,12.57
2023-05-11T10:47:32.665Z,13.73
2023-05-11T10:50:24.247Z,8.67
2023-05-11T10:53:24.736Z,12.73
2023-05-11T10:56:12.482Z,9.87
2023-05-11T10:59:01.309Z,11.77
2023-05-11T11:01:39.961Z,9.37
2023-05-11T11:04:10.606Z,9.07
2023-05-11T11:06:41.179Z,11.47
2023-05-11T11:09:13.039Z,8.20
2023-05-11T11:11:42.562Z,10.37
2023-05-11T11:14:11.165Z,10.03
2023-05-11T11:16:40.195Z,9.57
2023-05-11T11:19:40.702Z,10.00
2023-05-11T11:22:44.375Z,9.70
2023-05-11T11:25:14.210Z,6.67
2023-05-11T11:28:01.162Z,5.70
2023-05-11T11:30:30.610Z,7.90
2023-05-11T11:33:31.048Z,8.23
2023-05-11T11:35:59.962Z,8.53
2023-05-11T11:38:29.541Z,9.47
2023-05-11T11:40:57.625Z,6.37
2023-05-11T11:43:27.128Z,5.57
2023-05-11T11:45:55.805Z,4.80
2023-05-11T11:48:25.097Z,4.63
2023-05-11T11:51:05.157Z,3.60
2023-05-11T11:54:05.569Z,4.37
2023-05-11T11:56:42.151Z,3.93
2023-05-11T11:59:13.853Z,3.43
2023-05-11T12:01:43.056Z,4.13
2023-05-11T12:04:37.151Z,2.87
2023-05-11T12:07:09.738Z,4.97
2023-05-11T12:09:40.112Z,4.23
2023-05-11T12:12:08.124Z,4.73
2023-05-11T12:14:35.843Z,4.23
2023-05-11T12:17:08.091Z,3.73
2023-05-11T12:19:36.700Z,4.60
2023-05-11T12:22:06.541Z,4.20
2023-05-11T12:24:34.484Z,3.37
2023-05-11T12:27:04.999Z,4.00
2023-05-11T12:29:32.736Z,3.80
2023-05-11T12:32:01.010Z,4.40
2023-05-11T12:34:29.472Z,3.87
2023-05-11T12:37:00.383Z,3.97
2023-05-11T12:39:30.321Z,3.53
2023-05-11T12:41:57.917Z,3.77
2023-05-11T12:44:30.870Z,3.43
2023-05-11T12:49:52.150Z,5.00
2023-05-11T12:52:19.698Z,4.97
2023-05-11T12:54:52.397Z,3.73
2023-05-11T12:57:24.552Z,4.63
2023-05-11T13:00:10.011Z,4.20
2023-05-11T13:02:45.471Z,6.10
2023-05-11T13:05:16.190Z,4.57
2023-05-11T13:07:48.457Z,4.23
2023-05-11T13:10:17.441Z,4.60
2023-05-11T13:12:52.265Z,4.87
2023-05-11T13:15:21.744Z,4.70
2023-05-11T13:17:56.641Z,7.50
2023-05-11T13:20:27.060Z,5.00
2023-05-11T13:23:05.434Z,5.90
2023-05-11T13:25:35.343Z,4.73
2023-05-11T13:28:03.251Z,4.63
2023-05-11T13:30:35.279Z,5.53
2023-05-11T13:33:06.229Z,6.40
2023-05-11T13:35:34.017Z,7.47
2023-05-11T13:38:01.550Z,5.50
2023-05-11T13:40:29.151Z,8.37
2023-05-11T13:43:02.328Z,9.93
2023-05-11T13:45:30.264Z,7.40
2023-05-11T13:47:57.877Z,6.40
2023-05-11T13:50:27.055Z,7.10
2023-05-11T13:52:55.003Z,8.23
2023-05-11T13:55:26.814Z,10.53
2023-05-11T13:57:54.590Z,8.00
2023-05-11T14:00:23.979Z,10.87
2023-05-11T14:02:52.678Z,8.30
2023-05-11T14:05:20.673Z,9.43
2023-05-11T14:07:49.148Z,9.60
2023-05-11T14:10:17.395Z,11.73
2023-05-11T14:12:45.293Z,8.40
2023-05-11T14:15:13.925Z,9.20
2023-05-11T14:17:43.361Z,8.87
2023-05-11T14:20:12.539Z,8.80
2023-05-11T14:22:40.751Z,9.10
2023-05-11T14:25:09.312Z,9.20
2023-05-11T14:27:40.171Z,7.80
2023-05-11T14:30:09.072Z,13.57
2023-05-11T14:32:36.698Z,8.43
2023-05-11T14:35:30.362Z,11.27
2023-05-11T14:37:58.316Z,13.80
2023-05-11T14:40:26.953Z,10.43
2023-05-11T14:42:55.037Z,8.23
2023-05-11T14:45:22.791Z,8.37
2023-05-11T14:47:50.452Z,9.77
2023-05-11T14:50:18.094Z,11.50
2023-05-11T14:52:48.287Z,8.50
2023-05-11T14:55:16.058Z,10.77
2023-05-11T14:57:43.894Z,9.10
2023-05-11T15:00:13.153Z,13.40
2023-05-11T15:02:40.922Z,13.07
2023-05-11T15:05:09.756Z,10.53
2023-05-11T15:07:39.211Z,9.93
2023-05-11T15:10:08.923Z,12.50
2023-05-11T15:12:37.624Z,8.53
2023-05-11T15:15:06.636Z,12.33
2023-05-11T15:17:34.260Z,9.73
2023-05-11T15:20:02.013Z,10.37
2023-05-11T15:22:29.820Z,10.00
2023-05-11T15:24:58.095Z,8.83
2023-05-11T15:27:27.262Z,12.33
2023-05-11T15:29:54.730Z,12.13
2023-05-11T15:32:22.925Z,13.40
2023-05-11T15:34:59.342Z,10.87
2023-05-11T15:37:27.933Z,9.10
2023-05-11T15:39:55.942Z,11.47
2023-05-11T15:42:23.877Z,8.33
2023-05-11T15:44:52.724Z,12.77
2023-05-11T15:47:20.401Z,8.20
2023-05-11T15:49:48.000Z,9.47
2023-05-11T15:52:16.054Z,7.70
2023-05-11T15:54:43.659Z,8.23
2023-05-11T15:57:11.139Z,7.43
2023-05-11T15:59:38.886Z,7.53
2023-05-11T16:02:08.428Z,10.20
2023-05-11T16:04:35.938Z,9.43
2023-05-11T16:07:04.533Z,10.63
2023-05-11T16:09:32.065Z,9.17
2023-05-11T16:12:00.172Z,10.83
2023-05-11T16:14:27.773Z,15.33
2023-05-11T16:16:55.716Z,9.03
2023-05-11T16:19:25.245Z,11.30
2023-05-11T16:21:53.180Z,8.40
2023-05-11T16:24:20.850Z,8.77
2023-05-11T16:26:48.413Z,7.63
2023-05-11T16:29:16.290Z,8.67
2023-05-11T16:31:44.758Z,7.40
2023-05-11T16:34:12.444Z,12.50
2023-05-11T16:36:41.214Z,10.83
2023-05-11T16:39:08.760Z,11.13
2023-05-11T16:41:36.226Z,9.43
2023-05-11T16:44:04.497Z,9.43
2023-05-11T16:46:32.330Z,7.83
2023-05-11T16:49:00.896Z,8.90
2023-05-11T16:51:29.189Z,10.10
2023-05-11T16:53:58.149Z,12.40
2023-05-11T16:56:25.831Z,9.60
2023-05-11T16:58:53.628Z,9.17
2023-05-11T17:01:21.454Z,9.83
2023-05-11T17:03:49.841Z,11.57
2023-05-11T17:06:20.882Z,9.10
2023-05-11T17:08:48.566Z,9.00
2023-05-11T17:11:18.015Z,10.27
2023-05-11T17:13:45.567Z,12.10
2023-05-11T17:16:14.252Z,10.77
2023-05-11T17:18:42.005Z,8.73
2023-05-11T17:21:09.700Z,8.13
2023-05-11T17:23:37.185Z,12.77
2023-05-11T17:26:10.061Z,11.13
2023-05-11T17:28:40.196Z,8.30
2023-05-11T17:31:12.326Z,8.77
2023-05-11T17:33:41.590Z,12.33
2023-05-11T17:36:10.451Z,9.23
2023-05-11T17:38:38.497Z,13.33
2023-05-11T17:41:06.963Z,10.30
2023-05-11T17:43:37.760Z,14.97
2023-05-11T17:46:07.148Z,9.10
2023-05-11T17:48:38.252Z,12.70
2023-05-11T17:51:06.082Z,9.40
2023-05-11T17:53:33.659Z,9.80
2023-05-11T17:56:01.250Z,10.77
2023-05-11T17:58:28.967Z,11.00
2023-05-11T18:00:57.576Z,11.13
2023-05-11T18:03:27.592Z,10.30
2023-05-11T18:05:55.718Z,11.57
2023-05-11T18:08:23.272Z,10.70
2023-05-11T18:10:51.067Z,10.73
2023-05-11T18:13:20.035Z,12.20
2023-05-11T18:15:48.147Z,9.40
2023-05-11T18:18:16.158Z,10.00
2023-05-11T18:20:46.411Z,12.00
2023-05-11T18:23:14.930Z,10.87
2023-05-11T18:25:44.149Z,10.33
2023-05-11T18:28:12.034Z,13.83
2023-05-11T18:30:40.227Z,14.10
2023-05-11T18:33:07.959Z,10.27
2023-05-11T18:35:35.986Z,8.60
2023-05-11T18:38:05.731Z,8.53
2023-05-11T18:40:34.602Z,14.87
2023-05-11T18:43:02.296Z,10.47
2023-05-11T18:45:30.405Z,13.77
2023-05-11T18:47:58.084Z,14.43
2023-05-11T18:50:26.963Z,16.83
2023-05-11T18:52:54.606Z,14.40
2023-05-11T18:55:30.839Z,13.53
2023-05-11T18:58:00.501Z,11.07
2023-05-11T19:00:28.233Z,12.87
2023-05-11T19:02:56.072Z,11.83
2023-05-11T19:05:23.699Z,10.83
2023-05-11T19:07:52.107Z,13.60
2023-05-11T19:10:24.681Z,11.57
2023-05-11T19:12:53.804Z,11.13
2023-05-11T19:15:21.206Z,12.37
2023-05-11T19:17:49.002Z,11.10
2023-05-11T19:20:16.824Z,16.13
2023-05-11T19:22:45.325Z,16.00
2023-05-11T19:25:13.064Z,12.27
2023-05-11T19:27:40.713Z,16.70
2023-05-11T19:30:11.274Z,10.10
2023-05-11T19:32:40.058Z,12.47
2023-05-11T19:35:10.230Z,11.43
2023-05-11T19:37:38.048Z,12.27
2023-05-11T19:40:38.049Z,10.00
2023-05-11T19:42:54.403Z,13.93
2023-05-11T19:45:23.347Z,15.20
2023-05-11T19:47:51.827Z,10.53
2023-05-11T19:50:24.394Z,14.70
2023-05-11T19:52:53.076Z,18.73
2023-05-11T19:55:21.202Z,10.00
2023-05-11T19:57:49.131Z,12.10
2023-05-11T20:00:18.915Z,11.47
2023-05-11T20:02:48.023Z,16.00
2023-05-11T20:05:15.608Z,15.53
2023-05-11T20:07:45.185Z,15.07
2023-05-11T20:10:13.390Z,13.20
2023-05-11T20:12:40.921Z,17.10
2023-05-11T20:15:09.799Z,12.30
2023-05-11T20:17:39.341Z,12.60
2023-05-11T20:20:09.937Z,11.30
2023-05-11T20:22:38.787Z,10.90
2023-05-11T20:25:14.091Z,12.83
2023-05-11T20:27:45.184Z,12.80
2023-05-11T20:30:13.549Z,13.60
2023-05-11T20:34:06.706Z,20.27
2023-05-11T20:35:33.916Z,18.37
2023-05-11T20:38:01.783Z,16.03
2023-05-11T20:40:30.167Z,14.40
2023-05-11T20:42:57.654Z,13.97
2023-05-11T20:45:26.210Z,13.63
2023-05-11T20:47:53.837Z,13.50
2023-05-11T20:50:21.648Z,12.57
2023-05-11T20:52:50.570Z,13.00
2023-05-11T20:55:18.467Z,12.73
2023-05-11T20:57:47.244Z,9.03
2023-05-11T21:00:16.063Z,11.47
2023-05-11T21:02:43.684Z,12.07
2023-05-11T21:05:11.888Z,11.27
2023-05-11T21:07:39.357Z,12.40
2023-05-11T21:10:12.723Z,8.80
2023-05-11T21:12:40.389Z,9.13
2023-05-11T21:15:08.917Z,8.27
2023-05-11T21:17:37.157Z,9.07
2023-05-11T21:20:06.160Z,7.37
2023-05-11T21:22:34.070Z,6.47
2023-05-11T21:25:03.977Z,8.53
2023-05-11T21:27:33.213Z,7.00
2023-05-11T21:30:02.158Z,7.40
2023-05-11T21:32:29.933Z,8.03
2023-05-11T21:34:57.532Z,6.87
2023-05-11T21:37:25.234Z,7.97
2023-05-11T21:39:53.103Z,8.43
2023-05-11T21:42:22.047Z,7.50
2023-05-11T21:44:51.437Z,8.17
2023-05-11T21:47:18.923Z,7.60
2023-05-11T21:49:46.476Z,6.40
2023-05-11T21:52:14.015Z,6.40
2023-05-11T21:54:41.577Z,7.60
2023-05-11T21:57:09.192Z,8.97
2023-05-11T21:59:36.736Z,9.30
2023-05-11T22:02:06.087Z,8.17
2023-05-11T22:04:33.932Z,7.97
2023-05-11T22:07:01.952Z,8.37
2023-05-11T22:09:31.615Z,6.13
2023-05-11T22:11:59.276Z,8.23
2023-05-11T22:14:26.845Z,6.77
2023-05-11T22:16:54.357Z,6.90
2023-05-11T22:19:23.259Z,7.30
2023-05-11T22:21:51.431Z,8.17
2023-05-11T22:24:19.092Z,6.17
2023-05-11T22:26:46.552Z,6.40
2023-05-11T22:29:14.976Z,10.00
2023-05-11T22:31:45.239Z,6.70
2023-05-11T22:34:14.502Z,8.27
2023-05-11T22:36:43.825Z,8.70
2023-05-11T22:39:12.147Z,6.53
2023-05-11T22:41:39.804Z,6.50
2023-05-11T22:44:07.471Z,8.37
2023-05-11T22:46:36.144Z,7.67
2023-05-11T22:49:04.041Z,9.00
2023-05-11T22:51:32.680Z,6.20
2023-05-11T22:54:01.494Z,6.23
2023-05-11T22:56:30.473Z,5.80
2023-05-11T22:59:00.196Z,5.47
2023-05-11T23:01:28.080Z,8.73
2023-05-11T23:03:55.601Z,5.80
2023-05-11T23:06:23.311Z,6.30
2023-05-11T23:08:50.954Z,6.53
2023-05-11T23:11:19.908Z,6.70
2023-05-11T23:13:47.417Z,6.07
2023-05-11T23:16:15.041Z,8.87
2023-05-11T23:18:43.617Z,7.50
2023-05-11T23:21:11.831Z,7.13
2023-05-11T23:23:42.398Z,7.70
2023-05-11T23:26:09.926Z,6.70
2023-05-11T23:28:40.943Z,6.30
2023-05-11T23:31:09.365Z,8.60
2023-05-11T23:33:37.524Z,6.50
2023-05-11T23:36:05.720Z,7.00
2023-05-11T23:38:35.657Z,7.77
2023-05-11T23:41:03.260Z,5.80
2023-05-11T23:43:33.379Z,6.43
2023-05-11T23:46:02.781Z,7.67
2023-05-11T23:48:30.698Z,6.90
2023-05-11T23:50:58.172Z,6.03
2023-05-11T23:53:25.667Z,7.10
2023-05-11T23:55:53.997Z,5.50
2023-05-11T23:58:21.635Z,5.77
